Time;durP1;ratioP1;P1;durP2;ratioP2;P2;SDS_P1;SDS_P2;PMS_P1;PMS_P2;Temp;Humidity;BMP_temperature;BMP_pressure;BME280_temperature;BME280_humidity;BME280_pressure;Samples;Min_cycle;Max_cycle;Signal;HPM_P1;HPM_P2
2023/03/26 00:00:39;;;;;;;1.70;1.10;;;;;;;11.52;77.38;94676.84;5001999;28;20229;-71
2023/03/26 00:03:05;;;;;;;2.20;0.90;;;;;;;11.49;77.30;94671.22;5035697;28;20229;-71
2023/03/26 00:05:31;;;;;;;2.47;1.00;;;;;;;11.60;76.69;94677.59;5017918;28;20225;-72
2023/03/26 00:07:57;;;;;;;1.90;1.00;;;;;;;11.62;77.19;94694.72;5025709;28;20249;-72
2023/03/26 00:10:24;;;;;;;2.50;1.00;;;;;;;11.49;76.59;94686.94;5026405;28;20309;-71
2023/03/26 00:12:50;;;;;;;1.20;1.10;;;;;;;11.49;77.29;94684.31;5001853;28;20687;-70
2023/03/26 00:15:15;;;;;;;1.67;0.90;;;;;;;11.48;77.21;94682.72;5030717;28;20229;-71
2023/03/26 00:17:41;;;;;;;0.80;0.80;;;;;;;11.57;76.55;94681.44;5033609;28;20678;-72
2023/03/26 00:20:07;;;;;;;1.70;1.10;;;;;;;11.51;77.46;94669.22;5034902;28;20284;-72
2023/03/26 00:22:33;;;;;;;2.10;1.00;;;;;;;11.46;76.99;94663.78;5036545;28;20967;-72
2023/03/26 00:24:58;;;;;;;1.33;1.03;;;;;;;11.40;77.93;94660.19;5013701;28;20269;-70
2023/03/26 00:27:24;;;;;;;1.10;1.00;;;;;;;11.40;77.40;94652.31;5029910;28;20327;-70
2023/03/26 00:29:49;;;;;;;1.10;0.97;;;;;;;11.39;77.26;94649.94;5020637;28;20261;-71
2023/03/26 00:32:15;;;;;;;1.10;1.00;;;;;;;11.46;77.75;94648.84;5023577;28;20245;-71
2023/03/26 00:34:41;;;;;;;1.97;1.00;;;;;;;11.31;77.92;94652.78;5009337;28;20240;-71
2023/03/26 00:37:07;;;;;;;1.97;1.00;;;;;;;11.32;78.27;94643.91;5013969;28;20225;-71
2023/03/26 00:39:36;;;;;;;0.90;0.80;;;;;;;11.22;78.65;94643.56;4999372;28;20229;-70
2023/03/26 00:42:05;;;;;;;1.50;1.10;;;;;;;11.30;78.25;94656.41;5028769;28;20238;-70
2023/03/26 00:44:33;;;;;;;1.73;0.90;;;;;;;11.19;78.30;94662.31;5017858;28;20230;-71
2023/03/26 00:46:58;;;;;;;0.90;0.90;;;;;;;11.32;77.55;94654.41;5004263;28;20226;-71
2023/03/26 00:49:25;;;;;;;0.93;0.93;;;;;;;11.18;77.83;94660.69;5015115;28;20253;-71
2023/03/26 00:51:51;;;;;;;1.00;1.00;;;;;;;11.18;77.79;94660.69;5024978;28;20222;-70
2023/03/26 00:54:17;;;;;;;1.70;1.00;;;;;;;11.23;77.68;94666.13;5017648;28;20707;-70
2023/03/26 00:56:42;;;;;;;1.30;1.00;;;;;;;11.26;77.52;94669.13;5025294;28;20229;-71
2023/03/26 00:59:08;;;;;;;0.93;0.93;;;;;;;11.20;77.45;94664.72;5030607;28;20240;-71
2023/03/26 01:01:34;;;;;;;0.97;0.87;;;;;;;11.27;76.83;94657.63;5032070;28;20750;-71
2023/03/26 01:04:26;;;;;;;2.00;0.90;;;;;;;11.33;76.51;94654.19;5015279;28;20623;-70
2023/03/26 01:06:51;;;;;;;1.20;0.90;;;;;;;11.30;75.86;94657.22;5017384;28;20348;-71
2023/03/26 01:09:18;;;;;;;0.90;0.90;;;;;;;11.41;75.95;94661.00;4999525;28;20311;-71
2023/03/26 01:11:44;;;;;;;1.67;0.90;;;;;;;11.36;75.43;94660.81;5017328;28;20234;-71
2023/03/26 01:14:15;;;;;;;0.97;0.97;;;;;;;11.30;75.25;94659.84;5011583;28;20333;-71
2023/03/26 01:16:48;;;;;;;1.20;1.10;;;;;;;11.28;75.50;94661.88;5006715;28;20286;-71
2023/03/26 01:19:23;;;;;;;1.10;1.00;;;;;;;11.16;75.90;94667.97;5014994;28;20260;-71
2023/03/26 01:21:49;;;;;;;1.10;1.00;;;;;;;11.26;75.59;94665.72;5035580;28;20235;-70
2023/03/26 01:24:15;;;;;;;2.33;1.10;;;;;;;11.19;75.72;94670.19;5012319;28;20288;-70
2023/03/26 01:27:03;;;;;;;0.90;0.90;;;;;;;11.07;76.55;94674.47;5007454;28;20238;-72
2023/03/26 01:29:28;;;;;;;1.47;1.03;;;;;;;11.17;76.10;94675.63;5031784;28;20287;-70
2023/03/26 01:32:19;;;;;;;1.23;1.07;;;;;;;11.23;75.81;94679.22;5030687;28;20272;-70
2023/03/26 01:35:03;;;;;;;1.83;1.03;;;;;;;11.24;76.12;94688.69;5027743;28;20241;-72
2023/03/26 01:37:31;;;;;;;1.33;1.23;;;;;;;11.11;76.34;94686.13;5007326;28;20292;-72
2023/03/26 01:40:04;;;;;;;1.50;1.20;;;;;;;11.11;77.34;94684.31;5011072;28;20247;-71
2023/03/26 01:42:40;;;;;;;1.40;1.20;;;;;;;11.06;76.85;94684.13;4997752;28;20246;-71
2023/03/26 01:45:10;;;;;;;1.40;1.17;;;;;;;11.03;77.22;94687.19;4996661;28;20234;-71
2023/03/26 01:47:36;;;;;;;1.20;1.10;;;;;;;11.02;78.04;94690.00;5031833;28;20238;-72
2023/03/26 01:50:02;;;;;;;1.23;1.00;;;;;;;11.05;77.71;94689.59;5035126;28;20249;-70
2023/03/26 01:52:28;;;;;;;1.10;1.00;;;;;;;11.01;77.94;94694.41;5011593;28;20240;-71
2023/03/26 01:54:53;;;;;;;1.20;1.10;;;;;;;11.06;78.00;94693.78;4995874;28;20237;-71
2023/03/26 01:57:46;;;;;;;1.40;1.17;;;;;;;11.02;78.43;94695.22;4996906;28;20963;-71
2023/03/26 02:00:23;;;;;;;2.67;1.07;;;;;;;11.03;78.73;94686.38;5001071;28;20230;-72
2023/03/26 02:03:20;;;;;;;1.20;1.07;;;;;;;11.10;78.54;94687.16;5028641;28;20246;-71
2023/03/26 02:06:14;;;;;;;1.20;1.10;;;;;;;11.07;78.83;94690.19;5022170;28;20315;-70
2023/03/26 02:08:58;;;;;;;1.33;1.20;;;;;;;10.90;79.46;94681.97;5010053;28;20230;-71
2023/03/26 02:11:23;;;;;;;1.90;1.30;;;;;;;10.84;79.62;94686.22;5013736;28;20233;-71
2023/03/26 02:13:49;;;;;;;1.83;1.30;;;;;;;10.85;79.92;94681.78;5013446;28;20240;-70
2023/03/26 02:16:15;;;;;;;2.17;1.20;;;;;;;10.79;80.07;94686.03;5035005;28;20287;-71
2023/03/26 02:18:44;;;;;;;1.30;1.20;;;;;;;10.77;80.71;94689.91;5011223;28;20269;-70
2023/03/26 02:21:14;;;;;;;1.70;1.33;;;;;;;10.78;80.88;94688.88;5004861;28;20237;-71
2023/03/26 02:23:45;;;;;;;1.37;1.27;;;;;;;10.73;81.20;94697.34;5023970;28;20256;-70
2023/03/26 02:26:11;;;;;;;1.77;1.47;;;;;;;10.77;80.77;94687.28;5014575;28;20669;-71
2023/03/26 02:28:37;;;;;;;2.83;1.40;;;;;;;10.66;81.46;94685.28;5020332;28;20229;-71
2023/03/26 02:31:03;;;;;;;2.13;1.43;;;;;;;10.60;81.58;94688.72;5002072;28;20695;-71
2023/03/26 02:33:29;;;;;;;1.80;1.33;;;;;;;10.59;81.77;94684.50;5013067;28;20234;-71
2023/03/26 02:35:58;;;;;;;1.87;1.40;;;;;;;10.52;82.01;94687.13;5011922;28;20292;-70
2023/03/26 02:38:32;;;;;;;1.47;1.37;;;;;;;10.60;81.81;94693.97;4993508;28;20797;-71
2023/03/26 02:40:58;;;;;;;1.63;1.53;;;;;;;10.47;82.38;94696.59;5031534;28;20761;-71
2023/03/26 02:43:23;;;;;;;1.40;1.30;;;;;;;10.53;82.15;94696.56;5005726;28;20242;-71
2023/03/26 02:45:49;;;;;;;3.23;1.50;;;;;;;10.54;82.11;94697.38;4999371;28;20234;-71
2023/03/26 02:48:15;;;;;;;2.20;1.33;;;;;;;10.56;81.47;94703.22;5012334;28;20287;-72
2023/03/26 02:50:40;;;;;;;3.10;1.50;;;;;;;10.48;81.97;94704.25;5029379;28;20312;-71
2023/03/26 02:53:06;;;;;;;1.93;1.40;;;;;;;10.50;81.95;94707.47;5022827;28;20249;-71
2023/03/26 02:55:32;;;;;;;1.50;1.40;;;;;;;10.55;82.35;94712.91;4996751;28;20700;-71
2023/03/26 02:57:57;;;;;;;2.53;1.77;;;;;;;10.53;82.64;94716.72;5012194;28;20241;-71
2023/03/26 03:00:24;;;;;;;1.60;1.50;;;;;;;10.42;83.46;94712.09;5013869;28;20245;-71
2023/03/26 03:02:51;;;;;;;2.13;1.50;;;;;;;10.41;83.57;94720.97;5028230;28;21117;-71
2023/03/26 03:05:17;;;;;;;2.87;1.50;;;;;;;10.31;83.88;94718.75;5022143;28;20225;-71
2023/03/26 03:07:45;;;;;;;1.97;1.60;;;;;;;10.37;84.34;94725.78;5000043;28;20234;-72
2023/03/26 03:10:12;;;;;;;1.93;1.50;;;;;;;10.30;83.43;94722.38;4992335;28;20335;-70
2023/03/26 03:12:41;;;;;;;2.17;1.50;;;;;;;10.24;83.65;94727.63;5010901;28;20244;-70
2023/03/26 03:15:07;;;;;;;3.73;1.70;;;;;;;10.14;84.03;94726.22;4996632;28;20307;-71
2023/03/26 03:17:33;;;;;;;2.03;1.50;;;;;;;10.12;83.35;94722.19;4982747;28;20237;-69
2023/03/26 03:19:59;;;;;;;1.73;1.50;;;;;;;10.11;83.76;94731.84;4995568;28;20225;-70
2023/03/26 03:22:24;;;;;;;2.77;1.73;;;;;;;10.06;83.65;94726.38;5010762;28;20222;-70
2023/03/26 03:24:56;;;;;;;3.93;1.80;;;;;;;10.01;83.92;94735.81;4998400;28;20226;-70
2023/03/26 03:27:24;;;;;;;2.73;2.00;;;;;;;10.07;84.78;94732.41;4988945;28;20226;-71
2023/03/26 03:29:52;;;;;;;2.97;2.10;;;;;;;10.11;83.52;94729.22;5008652;28;20238;-70
2023/03/26 03:32:18;;;;;;;3.17;2.37;;;;;;;9.94;83.96;94741.03;4992594;28;20807;-71
2023/03/26 03:34:44;;;;;;;3.87;2.67;;;;;;;10.04;83.74;94736.22;5009377;28;20266;-71
2023/03/26 03:37:10;;;;;;;3.60;2.30;;;;;;;10.00;84.06;94735.03;5019346;28;20311;-70
2023/03/26 03:39:35;;;;;;;5.10;2.67;;;;;;;9.96;83.46;94735.59;4994543;28;20283;-72
2023/03/26 03:42:01;;;;;;;3.43;2.67;;;;;;;9.95;83.37;94723.56;5017650;28;20686;-71
2023/03/26 03:44:27;;;;;;;2.90;2.43;;;;;;;9.86;84.02;94717.69;4997009;28;20233;-71
2023/03/26 03:46:54;;;;;;;5.77;2.40;;;;;;;9.82;84.12;94732.19;5012725;28;20711;-72
2023/03/26 03:49:20;;;;;;;4.33;2.87;;;;;;;9.87;84.45;94723.72;5005095;28;20338;-71
2023/03/26 03:51:46;;;;;;;4.67;2.60;;;;;;;9.86;83.22;94733.38;5012008;28;20631;-72
2023/03/26 03:54:11;;;;;;;4.13;2.70;;;;;;;9.89;84.36;94737.41;5003680;28;20238;-71
2023/03/26 03:56:37;;;;;;;3.77;2.90;;;;;;;9.97;83.47;94734.59;4995303;28;20317;-72
2023/03/26 03:59:03;;;;;;;5.40;2.87;;;;;;;9.81;84.55;94745.47;4994286;28;21193;-71
2023/03/26 04:01:29;;;;;;;3.20;2.53;;;;;;;9.87;84.91;94748.06;5017352;28;20250;-70
2023/03/26 04:03:55;;;;;;;4.43;2.67;;;;;;;9.84;84.68;94745.06;5014655;28;20238;-71
2023/03/26 04:06:24;;;;;;;4.73;2.60;;;;;;;9.85;84.28;94750.09;5032227;28;20252;-72
2023/03/26 04:08:49;;;;;;;4.20;2.80;;;;;;;9.84;84.17;94739.84;5010391;28;20294;-71
2023/03/26 04:11:15;;;;;;;4.10;2.90;;;;;;;9.81;84.63;94748.06;5020769;28;20230;-71
2023/03/26 04:13:41;;;;;;;4.43;2.80;;;;;;;9.76;84.92;94756.50;5014914;28;20277;-70
2023/03/26 04:16:07;;;;;;;4.47;3.03;;;;;;;9.76;85.18;94772.19;5003636;28;20240;-71
2023/03/26 04:18:32;;;;;;;4.93;2.93;;;;;;;9.78;84.74;94767.56;5015350;28;20231;-70
2023/03/26 04:21:01;;;;;;;4.27;2.80;;;;;;;9.82;84.81;94786.25;5005018;28;20309;-71
2023/03/26 04:23:28;;;;;;;3.20;2.90;;;;;;;9.92;84.02;94792.72;5005894;28;20240;-71
2023/03/26 04:25:53;;;;;;;4.60;3.10;;;;;;;9.95;84.06;94802.78;5009729;28;20236;-71
2023/03/26 04:28:54;;;;;;;5.00;3.30;;;;;;;10.00;84.16;94808.22;5019525;28;20234;-71
2023/03/26 04:31:27;;;;;;;5.10;3.17;;;;;;;10.14;83.25;94816.94;4981946;28;20288;-71
2023/03/26 04:33:54;;;;;;;4.30;3.40;;;;;;;10.34;82.67;94822.19;5011738;28;20309;-70
2023/03/26 04:36:23;;;;;;;5.83;3.40;;;;;;;10.16;82.69;94825.38;5001650;28;20257;-71
2023/03/26 04:38:50;;;;;;;6.40;3.77;;;;;;;10.13;83.58;94831.81;5020698;28;20317;-71
2023/03/26 04:41:16;;;;;;;4.73;3.40;;;;;;;10.23;82.73;94831.41;5016375;28;21022;-71
2023/03/26 04:43:46;;;;;;;5.57;3.80;;;;;;;10.15;82.67;94836.81;5003555;28;20295;-71
2023/03/26 04:46:12;;;;;;;5.90;3.83;;;;;;;10.15;82.91;94840.25;5010247;28;20233;-71
2023/03/26 04:48:38;;;;;;;6.47;3.67;;;;;;;10.29;81.91;94841.09;5020096;28;20257;-72
2023/03/26 04:51:08;;;;;;;3.90;3.17;;;;;;;10.23;81.44;94839.25;5031949;28;20376;-71
2023/03/26 04:53:34;;;;;;;5.03;3.70;;;;;;;10.29;81.32;94841.09;5004774;28;20307;-71
2023/03/26 04:56:07;;;;;;;5.60;3.60;;;;;;;10.34;80.68;94837.88;5020375;28;20698;-71
2023/03/26 04:58:32;;;;;;;4.60;3.40;;;;;;;10.49;80.00;94844.53;4980063;28;20233;-71
2023/03/26 05:01:00;;;;;;;6.37;3.90;;;;;;;10.60;79.80;94846.53;5007175;28;20238;-71
2023/03/26 05:03:30;;;;;;;5.03;3.90;;;;;;;10.64;78.68;94839.09;5030707;28;20244;-70
2023/03/26 05:05:59;;;;;;;6.20;4.10;;;;;;;10.61;78.28;94845.53;4997379;28;20237;-70
2023/03/26 05:08:25;;;;;;;6.40;4.20;;;;;;;10.65;78.59;94841.50;5031149;28;20292;-71
2023/03/26 05:10:51;;;;;;;7.20;4.37;;;;;;;10.69;77.54;94842.72;5033781;28;20232;-70
2023/03/26 05:13:16;;;;;;;5.80;4.40;;;;;;;10.67;78.17;94852.59;5007450;28;20913;-70
2023/03/26 05:15:42;;;;;;;7.13;4.27;;;;;;;10.74;77.63;94860.44;5031680;28;20746;-70
2023/03/26 05:18:08;;;;;;;6.80;4.40;;;;;;;10.64;77.86;94855.59;4995938;28;20237;-72
2023/03/26 05:20:37;;;;;;;7.53;4.70;;;;;;;10.81;77.30;94851.59;5029169;28;20237;-72
2023/03/26 05:23:03;;;;;;;7.53;4.90;;;;;;;10.79;77.01;94848.34;5012663;28;20365;-70
2023/03/26 05:25:29;;;;;;;8.30;4.90;;;;;;;10.66;77.19;94847.53;5020667;28;20248;-72
2023/03/26 05:27:54;;;;;;;6.47;4.80;;;;;;;10.66;77.73;94850.97;5033840;28;20304;-73
2023/03/26 05:30:20;;;;;;;7.63;5.00;;;;;;;11.51;74.53;94857.91;5027434;28;20291;-71
2023/03/26 05:32:47;;;;;;;7.10;5.10;;;;;;;11.21;75.30;94857.56;5021391;28;20304;-72
2023/03/26 05:35:15;;;;;;;7.97;5.57;;;;;;;11.26;75.84;94857.75;5017301;28;20707;-71
2023/03/26 05:37:43;;;;;;;8.30;5.60;;;;;;;11.12;75.85;94852.75;5039289;28;20352;-71
2023/03/26 05:40:10;;;;;;;8.77;5.80;;;;;;;10.94;77.56;94860.44;5031698;28;20703;-71
2023/03/26 05:42:36;;;;;;;8.43;5.87;;;;;;;10.66;77.97;94864.06;5030147;28;20221;-72
2023/03/26 05:45:01;;;;;;;9.40;6.40;;;;;;;10.60;78.57;94859.63;4996488;28;20253;-71
2023/03/26 05:47:27;;;;;;;8.50;6.00;;;;;;;10.45;79.14;94873.91;5033954;28;20276;-70
2023/03/26 05:50:00;;;;;;;9.47;6.37;;;;;;;10.40;79.35;94864.03;5001431;28;20252;-72
2023/03/26 05:52:26;;;;;;;10.57;6.60;;;;;;;10.32;80.15;94877.31;4999475;28;20698;-71
2023/03/26 05:54:51;;;;;;;8.70;5.90;;;;;;;10.31;79.42;94886.16;5014593;28;20252;-71
2023/03/26 05:57:17;;;;;;;9.60;6.40;;;;;;;10.43;78.91;94881.16;5031976;28;20245;-71
2023/03/26 05:59:46;;;;;;;10.73;6.90;;;;;;;10.48;78.88;94873.50;5032153;28;20237;-72
2023/03/26 06:02:12;;;;;;;10.63;6.63;;;;;;;10.28;79.35;94875.28;5022990;28;20669;-72
2023/03/26 06:04:41;;;;;;;8.97;5.97;;;;;;;10.55;78.01;94864.66;5032482;28;20786;-72
2023/03/26 06:07:10;;;;;;;10.43;6.90;;;;;;;10.91;77.19;94864.25;5030759;28;20237;-72
2023/03/26 06:09:39;;;;;;;10.03;6.50;;;;;;;10.88;76.74;94869.09;5020114;28;20238;-71
2023/03/26 06:12:05;;;;;;;9.87;6.63;;;;;;;11.09;75.54;94859.19;5003735;28;20614;-70
2023/03/26 06:14:31;;;;;;;10.70;6.60;;;;;;;11.09;74.84;94858.38;5014185;28;20226;-71
2023/03/26 06:16:57;;;;;;;8.67;5.90;;;;;;;11.07;73.56;94861.22;5003166;28;20236;-71
2023/03/26 06:19:26;;;;;;;9.70;6.40;;;;;;;11.25;73.67;94857.94;5017801;28;21094;-71
2023/03/26 06:21:51;;;;;;;9.60;6.00;;;;;;;11.34;72.60;94854.13;5025296;28;20234;-70
2023/03/26 06:24:18;;;;;;;9.60;6.70;;;;;;;11.29;72.90;94869.66;5026919;28;20799;-71
2023/03/26 06:26:45;;;;;;;8.37;6.40;;;;;;;11.23;72.98;94866.03;5032806;28;20244;-71
2023/03/26 06:29:10;;;;;;;9.43;6.90;;;;;;;11.51;72.72;94863.16;4998421;28;20234;-71
2023/03/26 06:31:36;;;;;;;10.93;6.77;;;;;;;11.60;71.76;94864.53;5024106;28;20229;-71
2023/03/26 06:34:01;;;;;;;9.43;6.87;;;;;;;11.66;72.09;94860.25;5010892;28;20241;-71
2023/03/26 06:36:27;;;;;;;11.10;7.10;;;;;;;11.71;72.02;94855.22;5015339;28;20257;-71
2023/03/26 06:38:52;;;;;;;11.30;7.13;;;;;;;11.94;71.51;94855.56;5012764;28;20248;-71
2023/03/26 06:41:17;;;;;;;9.40;6.93;;;;;;;12.09;70.97;94858.69;5011620;28;21002;-71
2023/03/26 06:43:46;;;;;;;10.83;7.00;;;;;;;12.18;69.96;94864.50;5002849;28;20774;-74
2023/03/26 06:46:12;;;;;;;12.57;6.70;;;;;;;12.23;70.13;94869.94;4992465;28;20238;-72
2023/03/26 06:48:37;;;;;;;9.87;7.33;;;;;;;12.29;68.96;94863.81;5001796;28;20741;-72
2023/03/26 06:51:03;;;;;;;9.17;7.00;;;;;;;12.48;67.42;94865.53;5017918;28;20234;-71
2023/03/26 06:53:29;;;;;;;11.00;7.13;;;;;;;12.91;67.23;94871.66;5004191;28;20253;-71
2023/03/26 06:55:54;;;;;;;9.17;6.17;;;;;;;12.66;65.61;94873.47;5008355;28;20234;-71
2023/03/26 06:58:20;;;;;;;10.67;6.40;;;;;;;12.52;66.22;94878.00;5011481;28;20272;-72
2023/03/26 07:00:46;;;;;;;9.70;6.73;;;;;;;12.93;65.41;94885.38;5013283;28;20229;-72
2023/03/26 07:03:11;;;;;;;7.63;6.03;;;;;;;12.96;62.95;94884.16;5019232;28;20718;-72
2023/03/26 07:05:39;;;;;;;10.40;6.40;;;;;;;13.01;62.98;94889.56;5018850;28;20226;-73
2023/03/26 07:08:05;;;;;;;7.87;5.70;;;;;;;12.71;64.30;94894.63;5004772;28;20242;-72
2023/03/26 07:10:30;;;;;;;7.47;5.80;;;;;;;12.84;63.28;94895.38;5012656;28;20239;-73
2023/03/26 07:12:56;;;;;;;7.20;5.67;;;;;;;12.76;63.12;94892.19;5027303;28;20240;-73
2023/03/26 07:15:23;;;;;;;7.37;5.50;;;;;;;13.11;61.75;94888.06;5034516;28;20237;-71
2023/03/26 07:17:48;;;;;;;8.60;5.80;;;;;;;13.09;61.19;94881.44;5009701;28;20248;-73
2023/03/26 07:20:14;;;;;;;8.73;6.27;;;;;;;13.40;61.39;94879.53;5010609;28;20240;-72
2023/03/26 07:22:39;;;;;;;7.67;5.90;;;;;;;13.30;60.98;94878.44;5009606;28;20693;-71
2023/03/26 07:25:06;;;;;;;8.60;5.77;;;;;;;13.35;60.35;94873.31;5025570;28;20230;-72
2023/03/26 07:27:55;;;;;;;9.20;6.30;;;;;;;13.44;60.71;94878.09;5021548;28;20252;-71
2023/03/26 07:30:59;;;;;;;7.63;6.00;;;;;;;13.84;58.56;94882.91;5020448;28;20345;-71
2023/03/26 07:33:40;;;;;;;8.13;5.70;;;;;;;13.73;57.89;94873.13;5030336;28;20242;-69
2023/03/26 07:36:23;;;;;;;7.90;5.50;;;;;;;13.79;57.55;94870.41;5010117;28;20788;-71
2023/03/26 07:38:59;;;;;;;7.30;5.90;;;;;;;13.75;57.86;94871.06;5034640;28;20245;-70
2023/03/26 07:41:33;;;;;;;7.47;5.60;;;;;;;13.90;57.83;94872.28;5033216;28;20264;-71
2023/03/26 07:44:05;;;;;;;7.63;5.63;;;;;;;13.82;57.94;94879.69;5032646;28;20332;-71
2023/03/26 07:46:33;;;;;;;6.67;5.50;;;;;;;13.78;57.27;94868.00;5033578;28;20317;-71
2023/03/26 07:49:00;;;;;;;8.00;6.10;;;;;;;13.95;57.71;94869.81;5031553;28;20249;-71
2023/03/26 07:51:26;;;;;;;9.07;6.20;;;;;;;14.15;57.03;94867.75;5034873;28;20242;-71
2023/03/26 07:53:52;;;;;;;7.47;5.77;;;;;;;14.19;56.59;94870.72;5009897;28;20332;-72
2023/03/26 07:56:24;;;;;;;9.30;5.50;;;;;;;14.38;56.31;94869.66;5012627;28;20232;-69
2023/03/26 07:59:17;;;;;;;9.13;6.23;;;;;;;14.27;56.76;94873.03;5024439;28;20241;-72
2023/03/26 08:01:52;;;;;;;7.90;5.60;;;;;;;14.15;56.69;94859.03;5018861;28;20280;-72
2023/03/26 08:05:02;;;;;;;7.40;5.43;;;;;;;14.18;57.91;94861.22;5012056;28;20233;-72
2023/03/26 08:07:27;;;;;;;5.87;4.60;;;;;;;14.05;54.66;94870.09;5009871;28;20230;-71
2023/03/26 08:10:25;;;;;;;6.40;4.97;;;;;;;13.92;54.52;94869.44;5018025;28;20239;-71
2023/03/26 08:13:23;;;;;;;9.73;5.13;;;;;;;14.09;54.65;94854.66;5010341;28;20245;-71
2023/03/26 08:16:09;;;;;;;6.30;4.47;;;;;;;14.13;52.17;94855.81;5012427;28;20328;-71
2023/03/26 08:18:48;;;;;;;6.17;4.53;;;;;;;14.16;52.13;94858.00;5006443;28;20268;-72
2023/03/26 08:21:19;;;;;;;5.87;4.17;;;;;;;14.11;52.21;94855.25;5037801;28;20232;-71
2023/03/26 08:24:03;;;;;;;4.87;3.93;;;;;;;14.05;50.73;94864.00;5000614;28;20242;-71
2023/03/26 08:26:44;;;;;;;5.00;3.93;;;;;;;13.95;49.21;94861.09;5014196;28;20710;-71
2023/03/26 08:29:40;;;;;;;8.40;4.50;;;;;;;14.02;51.21;94865.25;4993408;28;20242;-70
2023/03/26 08:32:08;;;;;;;6.60;4.60;;;;;;;14.03;52.22;94860.81;5004783;28;20244;-70
2023/03/26 08:34:34;;;;;;;7.77;4.40;;;;;;;13.88;51.72;94861.19;4986010;28;20243;-71
2023/03/26 08:37:00;;;;;;;4.97;4.40;;;;;;;13.91;52.29;94868.66;5010997;28;20719;-72
2023/03/26 08:39:26;;;;;;;6.33;4.70;;;;;;;14.00;51.17;94869.94;5009174;28;20227;-71
2023/03/26 08:42:12;;;;;;;6.10;4.13;;;;;;;13.91;51.56;94873.09;5000883;28;20230;-71
2023/03/26 08:45:20;;;;;;;5.33;4.10;;;;;;;14.05;51.16;94874.53;5009730;28;20240;-72
2023/03/26 08:47:48;;;;;;;6.60;4.40;;;;;;;14.12;51.71;94864.72;5005580;28;20269;-71
2023/03/26 08:50:32;;;;;;;5.77;3.70;;;;;;;14.16;50.27;94858.00;5015996;28;20882;-71
2023/03/26 08:53:35;;;;;;;5.97;4.00;;;;;;;14.41;50.29;94853.44;5010484;28;20254;-71
2023/03/26 08:56:42;;;;;;;6.93;3.90;;;;;;;14.26;49.16;94853.00;5035520;28;20800;-71
2023/03/26 08:59:22;;;;;;;4.10;3.53;;;;;;;14.39;48.96;94860.75;5009335;28;20265;-71
2023/03/26 09:02:03;;;;;;;4.00;3.30;;;;;;;14.51;48.29;94863.41;5006080;28;20266;-71
2023/03/26 09:04:37;;;;;;;6.23;3.30;;;;;;;14.51;49.06;94866.06;5014486;28;20245;-70
2023/03/26 09:07:20;;;;;;;5.13;3.40;;;;;;;14.69;48.58;94865.97;4990910;28;20238;-70
2023/03/26 09:10:28;;;;;;;5.53;3.73;;;;;;;14.51;48.78;94869.50;5012675;28;20242;-70
2023/03/26 09:13:12;;;;;;;6.23;3.40;;;;;;;14.81;47.28;94870.25;4996856;28;20733;-71
2023/03/26 09:16:07;;;;;;;3.73;3.10;;;;;;;14.68;46.86;94859.94;5016204;28;20294;-72
2023/03/26 09:18:52;;;;;;;5.33;2.93;;;;;;;14.53;46.43;94859.53;5031941;28;20269;-71
2023/03/26 09:21:46;;;;;;;3.90;2.77;;;;;;;14.93;46.46;94853.63;5028610;28;20256;-71
2023/03/26 09:24:17;;;;;;;6.13;3.83;;;;;;;15.03;46.87;94853.88;5033677;28;20243;-73
2023/03/26 09:26:49;;;;;;;4.37;2.90;;;;;;;14.98;46.16;94849.31;5034634;28;20233;-72
2023/03/26 09:29:36;;;;;;;4.50;3.10;;;;;;;15.24;46.01;94851.50;5007673;28;20229;-72
2023/03/26 09:32:20;;;;;;;5.43;3.00;;;;;;;15.03;46.16;94849.44;5030187;28;20246;-71
2023/03/26 09:34:57;;;;;;;5.67;2.80;;;;;;;15.19;45.70;94846.09;5028860;28;20234;-71
2023/03/26 09:37:41;;;;;;;5.27;3.00;;;;;;;15.38;46.02;94846.81;5029813;28;20243;-72
2023/03/26 09:40:21;;;;;;;3.83;2.60;;;;;;;15.57;45.19;94842.22;5028352;28;20242;-71
2023/03/26 09:43:24;;;;;;;4.20;2.63;;;;;;;15.18;44.25;94846.34;5018905;28;20252;-71
2023/03/26 09:46:11;;;;;;;4.40;2.50;;;;;;;15.40;43.92;94839.47;5030654;28;20235;-72
2023/03/26 09:48:58;;;;;;;3.57;2.37;;;;;;;15.55;43.41;94828.47;5031637;28;20234;-72
2023/03/26 09:51:48;;;;;;;3.30;2.57;;;;;;;15.55;45.02;94833.75;5031666;28;20242;-70
2023/03/26 09:54:22;;;;;;;3.37;2.60;;;;;;;15.33;44.42;94822.97;5027032;28;20244;-71
2023/03/26 09:57:14;;;;;;;3.40;2.40;;;;;;;15.49;44.65;94817.81;5035421;28;20718;-71
2023/03/26 09:59:51;;;;;;;7.37;3.47;;;;;;;15.60;42.00;94828.53;5031767;28;20263;-71
2023/03/26 10:02:41;;;;;;;3.50;2.20;;;;;;;15.57;42.79;94810.56;5025049;28;20265;-72
2023/03/26 10:05:33;;;;;;;2.40;1.93;;;;;;;15.65;41.78;94813.63;5009248;28;20723;-71
2023/03/26 10:08:23;;;;;;;4.80;2.30;;;;;;;15.78;42.21;94794.91;5013931;28;20225;-71
2023/03/26 10:11:11;;;;;;;3.83;2.30;;;;;;;15.94;42.61;94796.81;5012002;28;20238;-72
2023/03/26 10:13:54;;;;;;;3.77;2.30;;;;;;;15.89;42.03;94801.97;5018603;28;20263;-72
2023/03/26 10:16:34;;;;;;;3.23;2.07;;;;;;;15.64;41.83;94793.56;5029740;28;20614;-72
2023/03/26 10:19:37;;;;;;;3.10;2.20;;;;;;;15.85;42.71;94779.75;5023492;28;20221;-70
2023/03/26 10:22:44;;;;;;;3.13;2.00;;;;;;;16.09;40.37;94778.59;5036349;28;20233;-71
2023/03/26 10:25:21;;;;;;;2.23;1.77;;;;;;;16.02;40.73;94780.59;5017702;28;20260;-72
2023/03/26 10:28:13;;;;;;;3.87;2.00;;;;;;;16.21;39.63;94775.09;4995720;28;20238;-71
2023/03/26 10:30:54;;;;;;;2.13;1.70;;;;;;;16.12;39.33;94767.56;5034878;28;20308;-71
2023/03/26 10:33:24;;;;;;;3.53;2.00;;;;;;;16.53;39.76;94758.50;5029727;28;20237;-71
2023/03/26 10:36:01;;;;;;;2.00;1.80;;;;;;;16.74;39.11;94754.38;5017063;28;20236;-72
2023/03/26 10:38:32;;;;;;;2.43;1.80;;;;;;;16.67;38.50;94753.72;5017977;28;20233;-73
2023/03/26 10:41:21;;;;;;;4.17;1.70;;;;;;;16.73;39.79;94753.56;5032698;28;20241;-72
2023/03/26 10:44:08;;;;;;;2.27;1.70;;;;;;;16.79;38.42;94752.56;5030404;28;20264;-73
2023/03/26 10:46:40;;;;;;;3.77;1.90;;;;;;;16.97;38.10;94756.81;5045834;28;20230;-72
2023/03/26 10:49:26;;;;;;;3.80;1.73;;;;;;;17.06;39.16;94744.78;5023188;28;20383;-73
2023/03/26 10:51:57;;;;;;;3.37;1.93;;;;;;;17.20;37.95;94737.28;5032349;28;20226;-73
2023/03/26 10:54:55;;;;;;;4.30;2.97;;;;;;;17.20;37.19;94748.66;5008084;28;20240;-73
2023/03/26 10:57:55;;;;;;;4.07;1.80;;;;;;;17.05;37.28;94737.88;5011869;28;20234;-74
2023/03/26 11:00:24;;;;;;;2.33;1.60;;;;;;;17.30;36.34;94735.59;5010472;28;20233;-73
2023/03/26 11:02:59;;;;;;;3.00;1.93;;;;;;;17.41;35.95;94729.38;4974713;28;20239;-72
2023/03/26 11:05:45;;;;;;;1.93;1.70;;;;;;;17.42;35.42;94727.53;5018865;28;20715;-72
2023/03/26 11:08:29;;;;;;;3.13;1.50;;;;;;;17.45;34.94;94733.13;5011975;28;20230;-73
2023/03/26 11:11:53;;;;;;;1.80;1.60;;;;;;;17.20;34.77;94730.16;5022796;28;20245;-73
2023/03/26 11:14:40;;;;;;;1.53;1.40;;;;;;;17.73;34.81;94728.69;4992616;28;20810;-73
2023/03/26 11:17:18;;;;;;;3.10;1.57;;;;;;;17.36;33.94;94734.59;5009056;28;20234;-72
2023/03/26 11:20:11;;;;;;;2.33;1.40;;;;;;;17.26;33.12;94720.44;5012916;28;20676;-73
2023/03/26 11:22:46;;;;;;;1.40;1.30;;;;;;;17.46;32.78;94721.50;5002848;28;20254;-74
2023/03/26 11:25:25;;;;;;;2.30;1.50;;;;;;;17.71;33.07;94718.38;5015963;28;20232;-72
2023/03/26 11:28:28;;;;;;;2.33;1.40;;;;;;;17.49;32.19;94709.63;5020398;28;20241;-73
2023/03/26 11:31:17;;;;;;;2.90;2.27;;;;;;;17.71;32.61;94712.28;5030473;28;20248;-72
2023/03/26 11:33:49;;;;;;;2.80;1.97;;;;;;;17.68;32.95;94713.56;5028664;28;20249;-73
2023/03/26 11:36:16;;;;;;;2.53;1.60;;;;;;;17.67;32.75;94709.34;5008955;28;20291;-73
2023/03/26 11:38:52;;;;;;;4.00;2.30;;;;;;;17.83;33.44;94713.75;5019675;28;20273;-73
2023/03/26 11:41:22;;;;;;;2.30;1.87;;;;;;;17.64;33.11;94709.03;5025130;28;20229;-73
2023/03/26 11:44:01;;;;;;;2.13;1.40;;;;;;;17.69;32.55;94701.94;5015760;28;20957;-72
2023/03/26 11:46:27;;;;;;;2.70;1.60;;;;;;;17.69;32.78;94698.50;5015324;28;20241;-73
2023/03/26 11:48:58;;;;;;;2.20;1.47;;;;;;;17.65;32.38;94678.88;5002052;28;20711;-72
2023/03/26 11:51:26;;;;;;;2.83;1.30;;;;;;;17.74;32.75;94682.66;5017851;28;20234;-72
2023/03/26 11:53:53;;;;;;;1.73;1.40;;;;;;;17.74;32.25;94670.22;5033790;28;20249;-73
2023/03/26 11:56:24;;;;;;;2.43;1.50;;;;;;;17.71;32.60;94664.63;5008438;28;20273;-75
2023/03/26 11:59:04;;;;;;;2.53;1.40;;;;;;;18.12;31.62;94656.81;5032578;28;20241;-73
2023/03/26 12:01:50;;;;;;;2.77;1.80;;;;;;;18.14;31.36;94649.41;5031389;28;20234;-73